sensor_id;sensor_type;location;lat;lon;timestamp;temperature;humidity
48454;DHT22;34261;55.678;12.464;2023-09-12T00:00:19;20.00;99.90
48454;DHT22;34261;55.678;12.464;2023-09-12T00:02:45;20.00;99.90
48454;DHT22;34261;55.678;12.464;2023-09-12T00:05:11;20.00;99.90
48454;DHT22;34261;55.678;12.464;2023-09-12T00:07:37;20.00;99.90
48454;DHT22;34261;55.678;12.464;2023-09-12T00:10:03;20.00;99.90
48454;DHT22;34261;55.678;12.464;2023-09-12T00:12:28;20.00;99.90
48454;DHT22;34261;55.678;12.464;2023-09-12T00:14:54;20.00;99.90
48454;DHT22;34261;55.678;12.464;2023-09-12T00:17:20;20.00;99.90
48454;DHT22;34261;55.678;12.464;2023-09-12T00:19:45;20.00;99.90
48454;DHT22;34261;55.678;12.464;2023-09-12T00:22:11;19.90;99.90
48454;DHT22;34261;55.678;12.464;2023-09-12T00:24:37;19.90;99.90
48454;DHT22;34261;55.678;12.464;2023-09-12T00:27:03;19.90;99.90
48454;DHT22;34261;55.678;12.464;2023-09-12T00:29:30;19.90;99.90
48454;DHT22;34261;55.678;12.464;2023-09-12T00:31:56;20.00;99.90
48454;DHT22;34261;55.678;12.464;2023-09-12T00:34:21;19.90;99.90
48454;DHT22;34261;55.678;12.464;2023-09-12T00:36:47;19.90;99.90
48454;DHT22;34261;55.678;12.464;2023-09-12T00:39:13;19.90;99.90
48454;DHT22;34261;55.678;12.464;2023-09-12T00:41:38;19.80;99.90
48454;DHT22;34261;55.678;12.464;2023-09-12T00:44:04;19.80;99.90
48454;DHT22;34261;55.678;12.464;2023-09-12T00:46:30;19.90;99.90
48454;DHT22;34261;55.678;12.464;2023-09-12T00:48:57;19.90;99.90
48454;DHT22;34261;55.678;12.464;2023-09-12T00:51:25;19.90;99.90
48454;DHT22;34261;55.678;12.464;2023-09-12T00:53:51;19.90;99.90
48454;DHT22;34261;55.678;12.464;2023-09-12T00:56:17;19.90;99.90
48454;DHT22;34261;55.678;12.464;2023-09-12T00:58:43;19.90;99.90
48454;DHT22;34261;55.678;12.464;2023-09-12T01:01:11;19.90;99.90
48454;DHT22;34261;55.678;12.464;2023-09-12T01:03:37;19.80;99.90
48454;DHT22;34261;55.678;12.464;2023-09-12T01:26:17;19.80;99.90
48454;DHT22;34261;55.678;12.464;2023-09-12T01:28:45;19.80;99.90
48454;DHT22;34261;55.678;12.464;2023-09-12T01:31:12;19.80;99.90
48454;DHT22;34261;55.678;12.464;2023-09-12T01:33:39;19.80;99.90
48454;DHT22;34261;55.678;12.464;2023-09-12T01:36:05;19.80;99.90
48454;DHT22;34261;55.678;12.464;2023-09-12T01:38:49;19.90;99.90
48454;DHT22;34261;55.678;12.464;2023-09-12T01:41:27;19.90;99.90
48454;DHT22;34261;55.678;12.464;2023-09-12T01:43:59;19.90;99.90
48454;DHT22;34261;55.678;12.464;2023-09-12T01:46:26;20.00;99.90
48454;DHT22;34261;55.678;12.464;2023-09-12T01:48:54;20.00;99.90
48454;DHT22;34261;55.678;12.464;2023-09-12T01:51:22;20.00;99.90
48454;DHT22;34261;55.678;12.464;2023-09-12T01:53:48;20.00;99.90
48454;DHT22;34261;55.678;12.464;2023-09-12T01:56:15;20.00;99.90
48454;DHT22;34261;55.678;12.464;2023-09-12T01:58:41;20.00;99.90
48454;DHT22;34261;55.678;12.464;2023-09-12T02:01:06;20.00;99.90
48454;DHT22;34261;55.678;12.464;2023-09-12T02:03:32;20.00;99.90
48454;DHT22;34261;55.678;12.464;2023-09-12T02:09:10;20.00;99.90
48454;DHT22;34261;55.678;12.464;2023-09-12T02:11:36;20.00;99.90
48454;DHT22;34261;55.678;12.464;2023-09-12T02:14:02;20.00;99.90
48454;DHT22;34261;55.678;12.464;2023-09-12T02:16:28;20.10;99.90
48454;DHT22;34261;55.678;12.464;2023-09-12T02:22:21;20.10;99.90
48454;DHT22;34261;55.678;12.464;2023-09-12T02:24:47;20.10;99.90
48454;DHT22;34261;55.678;12.464;2023-09-12T02:27:16;20.00;99.90
48454;DHT22;34261;55.678;12.464;2023-09-12T02:29:42;20.10;99.90
48454;DHT22;34261;55.678;12.464;2023-09-12T02:32:08;20.10;99.90
48454;DHT22;34261;55.678;12.464;2023-09-12T02:34:34;20.10;99.90
48454;DHT22;34261;55.678;12.464;2023-09-12T02:37:00;20.10;99.90
48454;DHT22;34261;55.678;12.464;2023-09-12T02:39:25;20.10;99.90
48454;DHT22;34261;55.678;12.464;2023-09-12T02:41:51;20.00;99.90
48454;DHT22;34261;55.678;12.464;2023-09-12T02:44:17;20.10;99.90
48454;DHT22;34261;55.678;12.464;2023-09-12T02:46:42;20.10;99.90
48454;DHT22;34261;55.678;12.464;2023-09-12T02:49:08;20.10;99.90
48454;DHT22;34261;55.678;12.464;2023-09-12T02:51:34;20.10;99.90
48454;DHT22;34261;55.678;12.464;2023-09-12T02:53:59;20.00;99.90
48454;DHT22;34261;55.678;12.464;2023-09-12T02:56:25;20.00;99.90
48454;DHT22;34261;55.678;12.464;2023-09-12T02:58:51;20.00;99.90
48454;DHT22;34261;55.678;12.464;2023-09-12T03:01:17;20.00;99.90
48454;DHT22;34261;55.678;12.464;2023-09-12T03:03:45;20.00;99.90
48454;DHT22;34261;55.678;12.464;2023-09-12T03:06:12;20.00;99.90
48454;DHT22;34261;55.678;12.464;2023-09-12T03:08:39;20.00;99.90
48454;DHT22;34261;55.678;12.464;2023-09-12T03:11:05;19.90;99.90
48454;DHT22;34261;55.678;12.464;2023-09-12T03:13:33;19.90;99.90
48454;DHT22;34261;55.678;12.464;2023-09-12T03:15:59;19.90;99.90
48454;DHT22;34261;55.678;12.464;2023-09-12T03:18:25;19.90;99.90
48454;DHT22;34261;55.678;12.464;2023-09-12T03:20:50;19.90;99.90
48454;DHT22;34261;55.678;12.464;2023-09-12T03:23:16;19.90;99.90
48454;DHT22;34261;55.678;12.464;2023-09-12T03:25:42;19.90;99.90
48454;DHT22;34261;55.678;12.464;2023-09-12T03:28:08;19.90;99.90
48454;DHT22;34261;55.678;12.464;2023-09-12T03:30:34;19.90;99.90
48454;DHT22;34261;55.678;12.464;2023-09-12T03:33:00;19.90;99.90
48454;DHT22;34261;55.678;12.464;2023-09-12T03:35:28;19.90;99.90
48454;DHT22;34261;55.678;12.464;2023-09-12T03:37:53;19.90;99.90
48454;DHT22;34261;55.678;12.464;2023-09-12T03:40:19;19.90;99.90
48454;DHT22;34261;55.678;12.464;2023-09-12T03:42:45;19.90;99.90
48454;DHT22;34261;55.678;12.464;2023-09-12T03:45:10;19.90;99.90
48454;DHT22;34261;55.678;12.464;2023-09-12T03:47:36;19.90;99.90
48454;DHT22;34261;55.678;12.464;2023-09-12T03:50:02;19.90;99.90
48454;DHT22;34261;55.678;12.464;2023-09-12T03:52:29;19.90;99.90
48454;DHT22;34261;55.678;12.464;2023-09-12T03:54:54;19.90;99.90
48454;DHT22;34261;55.678;12.464;2023-09-12T03:57:20;19.90;99.90
48454;DHT22;34261;55.678;12.464;2023-09-12T03:59:46;19.80;99.90
48454;DHT22;34261;55.678;12.464;2023-09-12T04:02:12;19.80;99.90
48454;DHT22;34261;55.678;12.464;2023-09-12T04:04:38;19.70;99.90
48454;DHT22;34261;55.678;12.464;2023-09-12T04:07:24;19.70;99.90
48454;DHT22;34261;55.678;12.464;2023-09-12T04:09:53;19.60;99.90
48454;DHT22;34261;55.678;12.464;2023-09-12T04:19:47;19.60;99.90
48454;DHT22;34261;55.678;12.464;2023-09-12T04:25:21;19.50;99.90
48454;DHT22;34261;55.678;12.464;2023-09-12T04:27:46;19.50;99.90
48454;DHT22;34261;55.678;12.464;2023-09-12T04:30:12;19.50;99.90
48454;DHT22;34261;55.678;12.464;2023-09-12T04:32:41;19.50;99.90
48454;DHT22;34261;55.678;12.464;2023-09-12T04:35:07;19.50;99.90
48454;DHT22;34261;55.678;12.464;2023-09-12T04:37:32;19.60;99.90
48454;DHT22;34261;55.678;12.464;2023-09-12T04:39:59;19.50;99.90
48454;DHT22;34261;55.678;12.464;2023-09-12T04:42:25;19.50;99.90
48454;DHT22;34261;55.678;12.464;2023-09-12T04:44:50;19.50;99.90
48454;DHT22;34261;55.678;12.464;2023-09-12T04:47:16;19.50;99.90
48454;DHT22;34261;55.678;12.464;2023-09-12T05:10:03;19.60;99.90
48454;DHT22;34261;55.678;12.464;2023-09-12T05:12:29;19.60;99.90
48454;DHT22;34261;55.678;12.464;2023-09-12T05:15:10;19.60;99.90
48454;DHT22;34261;55.678;12.464;2023-09-12T05:17:38;19.60;99.90
48454;DHT22;34261;55.678;12.464;2023-09-12T05:23:08;19.70;99.90
48454;DHT22;34261;55.678;12.464;2023-09-12T05:25:44;19.70;99.90
48454;DHT22;34261;55.678;12.464;2023-09-12T05:31:13;19.80;99.90
48454;DHT22;34261;55.678;12.464;2023-09-12T05:33:39;19.80;99.90
48454;DHT22;34261;55.678;12.464;2023-09-12T05:36:16;19.80;99.90
48454;DHT22;34261;55.678;12.464;2023-09-12T05:38:42;19.80;99.90
48454;DHT22;34261;55.678;12.464;2023-09-12T05:41:08;19.90;99.90
48454;DHT22;34261;55.678;12.464;2023-09-12T05:43:33;19.90;99.90
48454;DHT22;34261;55.678;12.464;2023-09-12T05:45:59;19.90;99.90
48454;DHT22;34261;55.678;12.464;2023-09-12T05:51:31;20.00;99.90
48454;DHT22;34261;55.678;12.464;2023-09-12T05:53:56;20.00;99.90
48454;DHT22;34261;55.678;12.464;2023-09-12T05:59:45;20.10;99.90
48454;DHT22;34261;55.678;12.464;2023-09-12T06:02:31;20.10;99.90
48454;DHT22;34261;55.678;12.464;2023-09-12T06:07:56;20.10;99.90
48454;DHT22;34261;55.678;12.464;2023-09-12T06:10:22;20.10;99.90
48454;DHT22;34261;55.678;12.464;2023-09-12T06:12:48;20.10;99.90
48454;DHT22;34261;55.678;12.464;2023-09-12T06:15:14;20.10;99.90
48454;DHT22;34261;55.678;12.464;2023-09-12T06:17:40;20.10;99.90
48454;DHT22;34261;55.678;12.464;2023-09-12T06:20:06;20.10;99.90
48454;DHT22;34261;55.678;12.464;2023-09-12T06:22:32;20.20;99.90
48454;DHT22;34261;55.678;12.464;2023-09-12T06:24:59;20.20;99.90
48454;DHT22;34261;55.678;12.464;2023-09-12T06:27:24;20.30;99.90
48454;DHT22;34261;55.678;12.464;2023-09-12T06:29:50;20.30;99.90
48454;DHT22;34261;55.678;12.464;2023-09-12T06:32:17;20.30;99.90
48454;DHT22;34261;55.678;12.464;2023-09-12T06:34:48;20.30;99.90
48454;DHT22;34261;55.678;12.464;2023-09-12T06:37:14;20.30;99.90
48454;DHT22;34261;55.678;12.464;2023-09-12T06:39:39;20.30;99.90
48454;DHT22;34261;55.678;12.464;2023-09-12T06:42:05;20.40;99.90
48454;DHT22;34261;55.678;12.464;2023-09-12T06:44:32;20.50;99.90
48454;DHT22;34261;55.678;12.464;2023-09-12T06:46:58;20.50;99.90
48454;DHT22;34261;55.678;12.464;2023-09-12T06:49:23;20.60;99.90
48454;DHT22;34261;55.678;12.464;2023-09-12T06:51:49;20.60;99.90
48454;DHT22;34261;55.678;12.464;2023-09-12T06:54:14;20.60;99.90
48454;DHT22;34261;55.678;12.464;2023-09-12T06:56:40;20.60;99.90
48454;DHT22;34261;55.678;12.464;2023-09-12T06:59:08;20.70;99.90
48454;DHT22;34261;55.678;12.464;2023-09-12T07:01:34;20.70;99.90
48454;DHT22;34261;55.678;12.464;2023-09-12T07:04:00;20.90;99.90
48454;DHT22;34261;55.678;12.464;2023-09-12T07:06:25;20.90;99.90
48454;DHT22;34261;55.678;12.464;2023-09-12T07:08:51;21.00;99.90
48454;DHT22;34261;55.678;12.464;2023-09-12T07:11:16;21.00;99.90
48454;DHT22;34261;55.678;12.464;2023-09-12T07:13:42;21.00;99.90
48454;DHT22;34261;55.678;12.464;2023-09-12T07:16:09;21.10;99.90
48454;DHT22;34261;55.678;12.464;2023-09-12T07:18:35;21.10;99.90
48454;DHT22;34261;55.678;12.464;2023-09-12T07:21:04;21.10;99.90
48454;DHT22;34261;55.678;12.464;2023-09-12T07:23:30;21.00;99.90
48454;DHT22;34261;55.678;12.464;2023-09-12T07:25:57;21.10;99.90
48454;DHT22;34261;55.678;12.464;2023-09-12T07:28:24;21.20;99.90
48454;DHT22;34261;55.678;12.464;2023-09-12T07:30:50;21.30;99.90
48454;DHT22;34261;55.678;12.464;2023-09-12T07:33:15;21.30;99.90
48454;DHT22;34261;55.678;12.464;2023-09-12T07:35:41;21.40;99.90
48454;DHT22;34261;55.678;12.464;2023-09-12T07:38:06;21.40;99.90
48454;DHT22;34261;55.678;12.464;2023-09-12T07:40:32;21.40;99.90
48454;DHT22;34261;55.678;12.464;2023-09-12T07:42:58;21.40;99.90
48454;DHT22;34261;55.678;12.464;2023-09-12T07:45:23;21.40;99.90
48454;DHT22;34261;55.678;12.464;2023-09-12T07:47:49;21.40;99.90
48454;DHT22;34261;55.678;12.464;2023-09-12T07:50:15;21.40;99.90
48454;DHT22;34261;55.678;12.464;2023-09-12T07:52:41;21.40;99.90
48454;DHT22;34261;55.678;12.464;2023-09-12T07:55:07;21.60;99.90
48454;DHT22;34261;55.678;12.464;2023-09-12T07:57:34;21.60;99.90
48454;DHT22;34261;55.678;12.464;2023-09-12T08:00:00;21.80;99.90
48454;DHT22;34261;55.678;12.464;2023-09-12T08:02:26;21.80;99.90
48454;DHT22;34261;55.678;12.464;2023-09-12T08:04:52;21.80;99.90
48454;DHT22;34261;55.678;12.464;2023-09-12T08:07:19;21.80;99.90
48454;DHT22;34261;55.678;12.464;2023-09-12T08:09:56;21.70;99.90
48454;DHT22;34261;55.678;12.464;2023-09-12T08:12:26;21.70;99.90
48454;DHT22;34261;55.678;12.464;2023-09-12T08:14:52;21.70;99.90
48454;DHT22;34261;55.678;12.464;2023-09-12T08:17:18;21.60;99.90
48454;DHT22;34261;55.678;12.464;2023-09-12T08:19:44;21.60;99.90
48454;DHT22;34261;55.678;12.464;2023-09-12T08:22:11;21.60;99.90
48454;DHT22;34261;55.678;12.464;2023-09-12T08:24:37;21.60;99.90
48454;DHT22;34261;55.678;12.464;2023-09-12T08:27:04;21.70;99.90
48454;DHT22;34261;55.678;12.464;2023-09-12T08:29:31;21.70;99.90
48454;DHT22;34261;55.678;12.464;2023-09-12T08:31:57;21.70;99.90
48454;DHT22;34261;55.678;12.464;2023-09-12T08:34:23;21.80;99.90
48454;DHT22;34261;55.678;12.464;2023-09-12T08:36:49;21.90;99.90
48454;DHT22;34261;55.678;12.464;2023-09-12T08:39:16;21.90;99.90
48454;DHT22;34261;55.678;12.464;2023-09-12T08:41:42;21.90;99.90
48454;DHT22;34261;55.678;12.464;2023-09-12T08:44:09;21.90;99.90
48454;DHT22;34261;55.678;12.464;2023-09-12T08:46:35;21.90;99.90
48454;DHT22;34261;55.678;12.464;2023-09-12T08:49:05;22.00;99.90
48454;DHT22;34261;55.678;12.464;2023-09-12T08:51:32;22.00;99.90
48454;DHT22;34261;55.678;12.464;2023-09-12T08:53:58;21.90;99.90
48454;DHT22;34261;55.678;12.464;2023-09-12T08:56:25;21.90;99.90
48454;DHT22;34261;55.678;12.464;2023-09-12T08:58:51;21.90;99.90
48454;DHT22;34261;55.678;12.464;2023-09-12T09:01:18;22.10;99.90
48454;DHT22;34261;55.678;12.464;2023-09-12T09:03:44;22.10;99.90
48454;DHT22;34261;55.678;12.464;2023-09-12T09:06:11;22.10;99.90
48454;DHT22;34261;55.678;12.464;2023-09-12T09:08:38;22.20;99.90
48454;DHT22;34261;55.678;12.464;2023-09-12T09:11:04;22.20;99.90
48454;DHT22;34261;55.678;12.464;2023-09-12T09:13:32;22.30;99.90
48454;DHT22;34261;55.678;12.464;2023-09-12T09:16:14;22.40;99.90
48454;DHT22;34261;55.678;12.464;2023-09-12T09:18:59;22.60;99.90
48454;DHT22;34261;55.678;12.464;2023-09-12T09:21:32;22.60;99.90
48454;DHT22;34261;55.678;12.464;2023-09-12T09:24:00;22.60;99.90
48454;DHT22;34261;55.678;12.464;2023-09-12T09:26:41;22.70;99.90
48454;DHT22;34261;55.678;12.464;2023-09-12T09:29:08;22.90;99.90
48454;DHT22;34261;55.678;12.464;2023-09-12T09:31:34;23.00;99.90
48454;DHT22;34261;55.678;12.464;2023-09-12T09:34:00;23.00;99.90
48454;DHT22;34261;55.678;12.464;2023-09-12T09:36:31;22.90;99.90
48454;DHT22;34261;55.678;12.464;2023-09-12T09:39:02;22.80;99.90
48454;DHT22;34261;55.678;12.464;2023-09-12T09:41:30;22.80;99.90
48454;DHT22;34261;55.678;12.464;2023-09-12T09:43:56;22.80;99.90
48454;DHT22;34261;55.678;12.464;2023-09-12T09:46:21;22.90;99.90
48454;DHT22;34261;55.678;12.464;2023-09-12T09:48:51;23.00;99.90
48454;DHT22;34261;55.678;12.464;2023-09-12T09:51:17;23.10;99.90
48454;DHT22;34261;55.678;12.464;2023-09-12T09:53:43;23.10;99.90
48454;DHT22;34261;55.678;12.464;2023-09-12T09:56:15;23.00;99.90
48454;DHT22;34261;55.678;12.464;2023-09-12T09:58:52;23.00;99.90
48454;DHT22;34261;55.678;12.464;2023-09-12T10:01:29;23.00;99.90
48454;DHT22;34261;55.678;12.464;2023-09-12T10:04:00;23.10;99.90
48454;DHT22;34261;55.678;12.464;2023-09-12T10:06:27;23.10;99.90
48454;DHT22;34261;55.678;12.464;2023-09-12T10:08:55;23.10;99.90
48454;DHT22;34261;55.678;12.464;2023-09-12T10:11:23;23.20;99.90
48454;DHT22;34261;55.678;12.464;2023-09-12T10:13:53;23.20;99.90
48454;DHT22;34261;55.678;12.464;2023-09-12T10:16:22;23.30;99.90
48454;DHT22;34261;55.678;12.464;2023-09-12T10:19:41;23.30;99.90
48454;DHT22;34261;55.678;12.464;2023-09-12T10:24:37;23.20;99.90
48454;DHT22;34261;55.678;12.464;2023-09-12T10:27:05;23.20;99.90
48454;DHT22;34261;55.678;12.464;2023-09-12T10:29:31;23.20;99.90
48454;DHT22;34261;55.678;12.464;2023-09-12T10:31:57;23.20;99.90
48454;DHT22;34261;55.678;12.464;2023-09-12T10:34:25;23.30;99.90
48454;DHT22;34261;55.678;12.464;2023-09-12T10:36:52;23.40;99.90
48454;DHT22;34261;55.678;12.464;2023-09-12T10:39:19;23.60;99.90
48454;DHT22;34261;55.678;12.464;2023-09-12T10:41:46;23.50;99.90
48454;DHT22;34261;55.678;12.464;2023-09-12T10:44:18;23.50;99.90
48454;DHT22;34261;55.678;12.464;2023-09-12T10:46:46;23.60;99.90
48454;DHT22;34261;55.678;12.464;2023-09-12T10:49:13;23.60;99.90
48454;DHT22;34261;55.678;12.464;2023-09-12T10:51:44;23.70;99.90
48454;DHT22;34261;55.678;12.464;2023-09-12T10:54:36;23.70;99.90
48454;DHT22;34261;55.678;12.464;2023-09-12T10:57:08;23.80;99.90
48454;DHT22;34261;55.678;12.464;2023-09-12T10:59:36;23.80;99.90
48454;DHT22;34261;55.678;12.464;2023-09-12T11:02:30;23.90;99.90
48454;DHT22;34261;55.678;12.464;2023-09-12T11:05:00;24.00;99.90
48454;DHT22;34261;55.678;12.464;2023-09-12T11:12:40;23.90;99.90
48454;DHT22;34261;55.678;12.464;2023-09-12T11:15:06;23.80;99.90
48454;DHT22;34261;55.678;12.464;2023-09-12T11:17:40;23.60;99.90
48454;DHT22;34261;55.678;12.464;2023-09-12T11:20:07;23.50;99.90
48454;DHT22;34261;55.678;12.464;2023-09-12T11:22:53;23.30;99.90
48454;DHT22;34261;55.678;12.464;2023-09-12T11:25:34;23.30;99.90
48454;DHT22;34261;55.678;12.464;2023-09-12T11:28:04;23.30;99.90
48454;DHT22;34261;55.678;12.464;2023-09-12T11:30:30;23.30;99.90
48454;DHT22;34261;55.678;12.464;2023-09-12T11:32:57;23.20;99.90
48454;DHT22;34261;55.678;12.464;2023-09-12T11:35:27;23.20;99.90
48454;DHT22;34261;55.678;12.464;2023-09-12T11:37:55;23.20;99.90
48454;DHT22;34261;55.678;12.464;2023-09-12T11:40:46;23.10;99.90
48454;DHT22;34261;55.678;12.464;2023-09-12T11:43:25;23.10;99.90
48454;DHT22;34261;55.678;12.464;2023-09-12T11:45:51;23.10;99.90
48454;DHT22;34261;55.678;12.464;2023-09-12T11:48:18;23.20;99.90
48454;DHT22;34261;55.678;12.464;2023-09-12T11:50:52;23.30;99.90
48454;DHT22;34261;55.678;12.464;2023-09-12T11:53:21;23.50;99.90
48454;DHT22;34261;55.678;12.464;2023-09-12T11:55:49;23.60;99.90
48454;DHT22;34261;55.678;12.464;2023-09-12T11:58:18;23.70;99.90
48454;DHT22;34261;55.678;12.464;2023-09-12T12:00:51;23.70;99.90
48454;DHT22;34261;55.678;12.464;2023-09-12T12:03:19;23.60;99.90
48454;DHT22;34261;55.678;12.464;2023-09-12T12:05:45;23.70;99.90
48454;DHT22;34261;55.678;12.464;2023-09-12T12:08:11;23.60;99.90
48454;DHT22;34261;55.678;12.464;2023-09-12T12:10:37;23.70;99.90
48454;DHT22;34261;55.678;12.464;2023-09-12T12:13:05;23.70;99.90
48454;DHT22;34261;55.678;12.464;2023-09-12T12:15:31;23.70;99.90
48454;DHT22;34261;55.678;12.464;2023-09-12T12:17:58;23.90;99.90
48454;DHT22;34261;55.678;12.464;2023-09-12T12:20:23;24.00;99.90
48454;DHT22;34261;55.678;12.464;2023-09-12T12:22:49;24.00;99.90
48454;DHT22;34261;55.678;12.464;2023-09-12T12:25:18;24.00;99.90
48454;DHT22;34261;55.678;12.464;2023-09-12T12:27:44;24.00;99.90
48454;DHT22;34261;55.678;12.464;2023-09-12T12:30:12;24.10;99.90
48454;DHT22;34261;55.678;12.464;2023-09-12T12:32:45;24.20;99.90
48454;DHT22;34261;55.678;12.464;2023-09-12T12:35:22;24.20;99.90
48454;DHT22;34261;55.678;12.464;2023-09-12T12:37:53;24.20;99.90
48454;DHT22;34261;55.678;12.464;2023-09-12T12:40:19;24.10;99.90
48454;DHT22;34261;55.678;12.464;2023-09-12T12:42:46;24.10;99.90
48454;DHT22;34261;55.678;12.464;2023-09-12T12:45:30;24.10;99.90
48454;DHT22;34261;55.678;12.464;2023-09-12T12:48:00;24.10;99.90
48454;DHT22;34261;55.678;12.464;2023-09-12T12:50:26;24.20;99.90
48454;DHT22;34261;55.678;12.464;2023-09-12T12:52:52;24.40;99.90
48454;DHT22;34261;55.678;12.464;2023-09-12T12:55:20;24.60;99.90
48454;DHT22;34261;55.678;12.464;2023-09-12T12:57:48;24.90;99.90
48454;DHT22;34261;55.678;12.464;2023-09-12T13:00:17;25.00;99.90
48454;DHT22;34261;55.678;12.464;2023-09-12T13:02:44;25.10;99.90
48454;DHT22;34261;55.678;12.464;2023-09-12T13:05:39;25.30;99.90
48454;DHT22;34261;55.678;12.464;2023-09-12T13:08:07;25.80;99.90
48454;DHT22;34261;55.678;12.464;2023-09-12T13:10:32;26.10;99.90
48454;DHT22;34261;55.678;12.464;2023-09-12T13:12:58;26.10;99.90
48454;DHT22;34261;55.678;12.464;2023-09-12T13:15:24;25.90;99.90
48454;DHT22;34261;55.678;12.464;2023-09-12T13:17:49;25.90;99.90
48454;DHT22;34261;55.678;12.464;2023-09-12T13:20:15;25.70;99.90
48454;DHT22;34261;55.678;12.464;2023-09-12T13:22:40;25.50;99.90
48454;DHT22;34261;55.678;12.464;2023-09-12T13:25:08;25.40;99.90
48454;DHT22;34261;55.678;12.464;2023-09-12T13:27:34;25.40;99.90
48454;DHT22;34261;55.678;12.464;2023-09-12T13:30:00;25.50;99.90
48454;DHT22;34261;55.678;12.464;2023-09-12T13:32:26;25.40;99.90
48454;DHT22;34261;55.678;12.464;2023-09-12T13:34:53;25.20;99.90
48454;DHT22;34261;55.678;12.464;2023-09-12T13:37:18;25.20;99.90
48454;DHT22;34261;55.678;12.464;2023-09-12T13:39:44;25.10;99.90
48454;DHT22;34261;55.678;12.464;2023-09-12T13:42:15;25.10;99.90
48454;DHT22;34261;55.678;12.464;2023-09-12T13:44:45;25.00;99.90
48454;DHT22;34261;55.678;12.464;2023-09-12T13:47:10;25.00;99.90
48454;DHT22;34261;55.678;12.464;2023-09-12T13:49:36;24.90;99.90
48454;DHT22;34261;55.678;12.464;2023-09-12T13:52:02;24.90;99.90
48454;DHT22;34261;55.678;12.464;2023-09-12T13:54:28;24.90;99.90
48454;DHT22;34261;55.678;12.464;2023-09-12T13:56:53;25.00;99.90
48454;DHT22;34261;55.678;12.464;2023-09-12T13:59:19;25.10;99.90
48454;DHT22;34261;55.678;12.464;2023-09-12T14:01:46;25.30;99.90
48454;DHT22;34261;55.678;12.464;2023-09-12T14:04:11;25.60;99.90
48454;DHT22;34261;55.678;12.464;2023-09-12T14:06:39;25.80;99.90
48454;DHT22;34261;55.678;12.464;2023-09-12T14:09:05;25.80;99.90
48454;DHT22;34261;55.678;12.464;2023-09-12T14:11:31;25.70;99.90
48454;DHT22;34261;55.678;12.464;2023-09-12T14:13:56;25.60;99.90
48454;DHT22;34261;55.678;12.464;2023-09-12T14:16:22;25.40;99.90
48454;DHT22;34261;55.678;12.464;2023-09-12T14:18:47;25.30;99.90
48454;DHT22;34261;55.678;12.464;2023-09-12T14:21:13;25.20;99.90
48454;DHT22;34261;55.678;12.464;2023-09-12T14:23:38;25.10;99.90
48454;DHT22;34261;55.678;12.464;2023-09-12T14:26:04;25.00;99.90
48454;DHT22;34261;55.678;12.464;2023-09-12T14:28:30;25.00;99.90
48454;DHT22;34261;55.678;12.464;2023-09-12T14:30:57;24.90;99.90
48454;DHT22;34261;55.678;12.464;2023-09-12T14:33:23;24.80;99.90
48454;DHT22;34261;55.678;12.464;2023-09-12T14:35:49;24.60;99.90
48454;DHT22;34261;55.678;12.464;2023-09-12T14:38:14;24.50;99.90
48454;DHT22;34261;55.678;12.464;2023-09-12T14:40:40;24.40;99.90
48454;DHT22;34261;55.678;12.464;2023-09-12T14:43:05;24.20;99.90
48454;DHT22;34261;55.678;12.464;2023-09-12T14:45:33;24.20;99.90
48454;DHT22;34261;55.678;12.464;2023-09-12T14:47:58;24.20;99.90
48454;DHT22;34261;55.678;12.464;2023-09-12T14:50:24;24.30;99.90
48454;DHT22;34261;55.678;12.464;2023-09-12T14:53:23;24.30;99.90
48454;DHT22;34261;55.678;12.464;2023-09-12T14:55:48;24.50;99.90
48454;DHT22;34261;55.678;12.464;2023-09-12T14:58:14;24.50;99.90
48454;DHT22;34261;55.678;12.464;2023-09-12T15:00:39;24.50;99.90
48454;DHT22;34261;55.678;12.464;2023-09-12T15:03:05;24.50;99.90
48454;DHT22;34261;55.678;12.464;2023-09-12T15:05:31;24.50;99.90
48454;DHT22;34261;55.678;12.464;2023-09-12T15:07:56;24.50;99.90
48454;DHT22;34261;55.678;12.464;2023-09-12T15:10:22;24.50;99.90
48454;DHT22;34261;55.678;12.464;2023-09-12T15:12:48;24.20;99.90
48454;DHT22;34261;55.678;12.464;2023-09-12T15:15:13;24.10;99.90
48454;DHT22;34261;55.678;12.464;2023-09-12T15:17:39;24.10;99.90
48454;DHT22;34261;55.678;12.464;2023-09-12T15:20:06;24.10;99.90
48454;DHT22;34261;55.678;12.464;2023-09-12T15:22:32;24.20;99.90
48454;DHT22;34261;55.678;12.464;2023-09-12T15:24:59;24.20;99.90
48454;DHT22;34261;55.678;12.464;2023-09-12T15:27:24;24.20;99.90
48454;DHT22;34261;55.678;12.464;2023-09-12T15:29:50;24.10;99.90
48454;DHT22;34261;55.678;12.464;2023-09-12T15:32:15;24.10;99.90
48454;DHT22;34261;55.678;12.464;2023-09-12T15:34:41;24.00;99.90
48454;DHT22;34261;55.678;12.464;2023-09-12T15:37:11;24.00;99.90
48454;DHT22;34261;55.678;12.464;2023-09-12T15:39:38;23.90;99.90
48454;DHT22;34261;55.678;12.464;2023-09-12T15:42:04;23.80;99.90
48454;DHT22;34261;55.678;12.464;2023-09-12T15:44:30;23.70;99.90
48454;DHT22;34261;55.678;12.464;2023-09-12T15:46:56;23.60;99.90
48454;DHT22;34261;55.678;12.464;2023-09-12T15:49:27;23.60;99.90
48454;DHT22;34261;55.678;12.464;2023-09-12T15:51:56;23.60;99.90
48454;DHT22;34261;55.678;12.464;2023-09-12T15:54:22;23.50;99.90
48454;DHT22;34261;55.678;12.464;2023-09-12T15:56:49;23.60;99.90
48454;DHT22;34261;55.678;12.464;2023-09-12T15:59:15;23.50;99.90
48454;DHT22;34261;55.678;12.464;2023-09-12T16:01:40;23.60;99.90
48454;DHT22;34261;55.678;12.464;2023-09-12T16:04:06;23.60;99.90
48454;DHT22;34261;55.678;12.464;2023-09-12T16:06:32;23.60;99.90
48454;DHT22;34261;55.678;12.464;2023-09-12T16:08:58;23.60;99.90
48454;DHT22;34261;55.678;12.464;2023-09-12T16:11:23;23.50;99.90
48454;DHT22;34261;55.678;12.464;2023-09-12T16:13:49;23.50;99.90
48454;DHT22;34261;55.678;12.464;2023-09-12T16:16:15;23.40;99.90
48454;DHT22;34261;55.678;12.464;2023-09-12T16:18:40;23.40;99.90
48454;DHT22;34261;55.678;12.464;2023-09-12T16:21:08;23.40;99.90
48454;DHT22;34261;55.678;12.464;2023-09-12T16:23:33;23.50;99.90
48454;DHT22;34261;55.678;12.464;2023-09-12T16:26:00;23.40;99.90
48454;DHT22;34261;55.678;12.464;2023-09-12T16:28:25;23.40;99.90
48454;DHT22;34261;55.678;12.464;2023-09-12T16:30:51;23.50;99.90
48454;DHT22;34261;55.678;12.464;2023-09-12T16:33:17;23.50;99.90
48454;DHT22;34261;55.678;12.464;2023-09-12T16:35:42;23.50;99.90
48454;DHT22;34261;55.678;12.464;2023-09-12T16:38:08;23.50;99.90